sensor_id;sensor_type;location;lat;lon;timestamp;temperature;humidity
59311;DHT22;45078;51.654;21.250;2023-06-14T00:00:59;12.10;99.90
59311;DHT22;45078;51.654;21.250;2023-06-14T00:03:24;12.10;99.90
59311;DHT22;45078;51.654;21.250;2023-06-14T00:05:51;12.10;99.90
59311;DHT22;45078;51.654;21.250;2023-06-14T00:08:17;12.00;99.90
59311;DHT22;45078;51.654;21.250;2023-06-14T00:10:44;12.10;99.90
59311;DHT22;45078;51.654;21.250;2023-06-14T00:13:10;12.10;99.90
59311;DHT22;45078;51.654;21.250;2023-06-14T00:15:36;12.10;99.90
59311;DHT22;45078;51.654;21.250;2023-06-14T00:18:03;12.00;99.90
59311;DHT22;45078;51.654;21.250;2023-06-14T00:20:30;12.10;99.90
59311;DHT22;45078;51.654;21.250;2023-06-14T00:22:58;12.00;99.90
59311;DHT22;45078;51.654;21.250;2023-06-14T00:25:24;12.00;99.90
59311;DHT22;45078;51.654;21.250;2023-06-14T00:27:54;12.10;99.90
59311;DHT22;45078;51.654;21.250;2023-06-14T00:30:20;12.10;99.90
59311;DHT22;45078;51.654;21.250;2023-06-14T00:32:47;12.10;99.90
59311;DHT22;45078;51.654;21.250;2023-06-14T00:35:13;12.10;99.90
59311;DHT22;45078;51.654;21.250;2023-06-14T00:37:39;12.10;99.90
59311;DHT22;45078;51.654;21.250;2023-06-14T00:40:05;12.00;99.90
59311;DHT22;45078;51.654;21.250;2023-06-14T00:42:32;12.10;99.90
59311;DHT22;45078;51.654;21.250;2023-06-14T00:44:59;12.10;99.90
59311;DHT22;45078;51.654;21.250;2023-06-14T00:47:25;12.10;99.90
59311;DHT22;45078;51.654;21.250;2023-06-14T00:49:53;12.10;99.90
59311;DHT22;45078;51.654;21.250;2023-06-14T00:52:20;12.10;99.90
59311;DHT22;45078;51.654;21.250;2023-06-14T00:54:46;12.10;99.90
59311;DHT22;45078;51.654;21.250;2023-06-14T00:57:13;12.10;99.90
59311;DHT22;45078;51.654;21.250;2023-06-14T00:59:47;12.10;99.90
59311;DHT22;45078;51.654;21.250;2023-06-14T01:02:14;12.10;99.90
59311;DHT22;45078;51.654;21.250;2023-06-14T01:04:46;12.10;99.90
59311;DHT22;45078;51.654;21.250;2023-06-14T01:10:26;12.10;99.90
59311;DHT22;45078;51.654;21.250;2023-06-14T01:15:44;12.10;99.90
59311;DHT22;45078;51.654;21.250;2023-06-14T01:18:11;12.10;99.90
59311;DHT22;45078;51.654;21.250;2023-06-14T01:20:43;12.10;99.90
59311;DHT22;45078;51.654;21.250;2023-06-14T01:23:11;12.00;99.90
59311;DHT22;45078;51.654;21.250;2023-06-14T01:25:39;12.10;99.90
59311;DHT22;45078;51.654;21.250;2023-06-14T01:28:10;12.00;99.90
59311;DHT22;45078;51.654;21.250;2023-06-14T01:30:41;12.10;99.90
59311;DHT22;45078;51.654;21.250;2023-06-14T01:33:17;12.00;99.90
59311;DHT22;45078;51.654;21.250;2023-06-14T01:35:46;12.00;99.90
59311;DHT22;45078;51.654;21.250;2023-06-14T01:38:17;12.10;99.90
59311;DHT22;45078;51.654;21.250;2023-06-14T01:40:45;12.00;99.90
59311;DHT22;45078;51.654;21.250;2023-06-14T01:43:14;12.00;99.90
59311;DHT22;45078;51.654;21.250;2023-06-14T01:45:42;12.00;99.90
59311;DHT22;45078;51.654;21.250;2023-06-14T01:48:11;12.10;99.90
59311;DHT22;45078;51.654;21.250;2023-06-14T01:50:37;12.10;99.90
59311;DHT22;45078;51.654;21.250;2023-06-14T01:53:06;12.10;99.90
59311;DHT22;45078;51.654;21.250;2023-06-14T01:55:32;12.00;99.90
59311;DHT22;45078;51.654;21.250;2023-06-14T01:58:03;12.10;99.90
59311;DHT22;45078;51.654;21.250;2023-06-14T02:00:29;12.10;99.90
59311;DHT22;45078;51.654;21.250;2023-06-14T02:02:55;12.10;99.90
59311;DHT22;45078;51.654;21.250;2023-06-14T02:05:21;12.10;99.90
59311;DHT22;45078;51.654;21.250;2023-06-14T02:07:47;12.10;99.90
59311;DHT22;45078;51.654;21.250;2023-06-14T02:10:13;12.10;99.90
59311;DHT22;45078;51.654;21.250;2023-06-14T02:12:40;12.10;99.90
59311;DHT22;45078;51.654;21.250;2023-06-14T02:15:06;12.10;99.90
59311;DHT22;45078;51.654;21.250;2023-06-14T02:17:32;12.10;99.90
59311;DHT22;45078;51.654;21.250;2023-06-14T02:19:58;12.10;99.90
59311;DHT22;45078;51.654;21.250;2023-06-14T02:22:25;12.10;99.90
59311;DHT22;45078;51.654;21.250;2023-06-14T02:24:50;12.10;99.90
59311;DHT22;45078;51.654;21.250;2023-06-14T02:27:17;12.10;99.90
59311;DHT22;45078;51.654;21.250;2023-06-14T02:29:43;12.10;99.90
59311;DHT22;45078;51.654;21.250;2023-06-14T02:32:08;12.10;99.90
59311;DHT22;45078;51.654;21.250;2023-06-14T02:34:34;12.10;99.90
59311;DHT22;45078;51.654;21.250;2023-06-14T02:37:01;12.10;99.90
59311;DHT22;45078;51.654;21.250;2023-06-14T02:39:29;12.10;99.90
59311;DHT22;45078;51.654;21.250;2023-06-14T02:41:54;12.10;99.90
59311;DHT22;45078;51.654;21.250;2023-06-14T02:44:24;12.10;99.90
59311;DHT22;45078;51.654;21.250;2023-06-14T02:46:56;12.10;99.90
59311;DHT22;45078;51.654;21.250;2023-06-14T02:49:22;12.10;99.90
59311;DHT22;45078;51.654;21.250;2023-06-14T02:51:48;12.20;99.90
59311;DHT22;45078;51.654;21.250;2023-06-14T02:54:14;12.20;99.90
59311;DHT22;45078;51.654;21.250;2023-06-14T02:56:40;12.20;99.90
59311;DHT22;45078;51.654;21.250;2023-06-14T02:59:06;12.20;99.90
59311;DHT22;45078;51.654;21.250;2023-06-14T03:01:34;12.20;99.90
59311;DHT22;45078;51.654;21.250;2023-06-14T03:04:03;12.20;99.90
59311;DHT22;45078;51.654;21.250;2023-06-14T03:06:30;12.20;99.90
59311;DHT22;45078;51.654;21.250;2023-06-14T03:08:57;12.20;99.90
59311;DHT22;45078;51.654;21.250;2023-06-14T03:11:30;12.20;99.90
59311;DHT22;45078;51.654;21.250;2023-06-14T03:13:56;12.30;99.90
59311;DHT22;45078;51.654;21.250;2023-06-14T03:16:22;12.30;99.90
59311;DHT22;45078;51.654;21.250;2023-06-14T03:18:52;12.30;99.90
59311;DHT22;45078;51.654;21.250;2023-06-14T03:21:19;12.40;99.90
59311;DHT22;45078;51.654;21.250;2023-06-14T03:23:46;12.40;99.90
59311;DHT22;45078;51.654;21.250;2023-06-14T03:26:12;12.40;99.90
59311;DHT22;45078;51.654;21.250;2023-06-14T03:28:41;12.40;99.90
59311;DHT22;45078;51.654;21.250;2023-06-14T03:31:07;12.50;99.90
59311;DHT22;45078;51.654;21.250;2023-06-14T03:33:34;12.50;99.90
59311;DHT22;45078;51.654;21.250;2023-06-14T03:36:01;12.50;99.90
59311;DHT22;45078;51.654;21.250;2023-06-14T03:38:26;12.50;99.90
59311;DHT22;45078;51.654;21.250;2023-06-14T03:40:52;12.50;99.90
59311;DHT22;45078;51.654;21.250;2023-06-14T03:43:18;12.50;99.90
59311;DHT22;45078;51.654;21.250;2023-06-14T03:45:44;12.50;99.90
59311;DHT22;45078;51.654;21.250;2023-06-14T03:48:10;12.50;99.90
59311;DHT22;45078;51.654;21.250;2023-06-14T03:50:36;12.60;99.90
59311;DHT22;45078;51.654;21.250;2023-06-14T03:53:04;12.60;99.90
59311;DHT22;45078;51.654;21.250;2023-06-14T03:55:30;12.70;99.90
59311;DHT22;45078;51.654;21.250;2023-06-14T03:57:59;12.70;99.90
59311;DHT22;45078;51.654;21.250;2023-06-14T04:00:25;12.60;99.90
59311;DHT22;45078;51.654;21.250;2023-06-14T04:02:51;12.70;99.90
59311;DHT22;45078;51.654;21.250;2023-06-14T04:05:17;12.70;99.90
59311;DHT22;45078;51.654;21.250;2023-06-14T04:07:47;12.70;99.90
59311;DHT22;45078;51.654;21.250;2023-06-14T04:10:15;12.70;99.90
59311;DHT22;45078;51.654;21.250;2023-06-14T04:12:42;12.80;99.90
59311;DHT22;45078;51.654;21.250;2023-06-14T04:15:08;12.80;99.90
59311;DHT22;45078;51.654;21.250;2023-06-14T04:17:35;12.80;99.90
59311;DHT22;45078;51.654;21.250;2023-06-14T04:20:01;12.80;99.90
59311;DHT22;45078;51.654;21.250;2023-06-14T04:22:29;12.90;99.90
59311;DHT22;45078;51.654;21.250;2023-06-14T04:24:56;12.90;99.90
59311;DHT22;45078;51.654;21.250;2023-06-14T04:27:26;12.90;99.90
59311;DHT22;45078;51.654;21.250;2023-06-14T04:29:53;12.90;99.90
59311;DHT22;45078;51.654;21.250;2023-06-14T04:32:26;12.90;99.90
59311;DHT22;45078;51.654;21.250;2023-06-14T04:34:55;12.90;99.90
59311;DHT22;45078;51.654;21.250;2023-06-14T04:37:23;12.90;99.90
59311;DHT22;45078;51.654;21.250;2023-06-14T04:39:49;13.00;99.90
59311;DHT22;45078;51.654;21.250;2023-06-14T04:42:16;13.00;99.90
59311;DHT22;45078;51.654;21.250;2023-06-14T04:44:44;13.10;99.90
59311;DHT22;45078;51.654;21.250;2023-06-14T04:47:10;13.10;99.90
59311;DHT22;45078;51.654;21.250;2023-06-14T04:49:41;13.20;99.90
59311;DHT22;45078;51.654;21.250;2023-06-14T04:52:07;13.20;99.90
59311;DHT22;45078;51.654;21.250;2023-06-14T04:54:39;13.30;99.90
59311;DHT22;45078;51.654;21.250;2023-06-14T04:57:09;13.30;99.90
59311;DHT22;45078;51.654;21.250;2023-06-14T04:59:40;13.30;99.90
59311;DHT22;45078;51.654;21.250;2023-06-14T05:02:06;13.40;99.90
59311;DHT22;45078;51.654;21.250;2023-06-14T05:04:32;13.40;99.90
59311;DHT22;45078;51.654;21.250;2023-06-14T05:06:58;13.50;99.90
59311;DHT22;45078;51.654;21.250;2023-06-14T05:09:24;13.50;99.90
59311;DHT22;45078;51.654;21.250;2023-06-14T05:11:50;13.50;99.90
59311;DHT22;45078;51.654;21.250;2023-06-14T05:14:16;13.60;99.90
59311;DHT22;45078;51.654;21.250;2023-06-14T05:16:41;13.60;99.90
59311;DHT22;45078;51.654;21.250;2023-06-14T05:19:08;13.80;99.90
59311;DHT22;45078;51.654;21.250;2023-06-14T05:21:36;13.90;99.90
59311;DHT22;45078;51.654;21.250;2023-06-14T05:24:03;14.10;99.90
59311;DHT22;45078;51.654;21.250;2023-06-14T05:26:28;14.20;99.90
59311;DHT22;45078;51.654;21.250;2023-06-14T05:28:56;14.40;99.90
59311;DHT22;45078;51.654;21.250;2023-06-14T05:31:26;14.70;99.90
59311;DHT22;45078;51.654;21.250;2023-06-14T05:33:53;14.80;99.90
59311;DHT22;45078;51.654;21.250;2023-06-14T05:36:20;14.90;99.90
59311;DHT22;45078;51.654;21.250;2023-06-14T05:38:47;15.00;99.90
59311;DHT22;45078;51.654;21.250;2023-06-14T05:41:12;15.00;99.90
59311;DHT22;45078;51.654;21.250;2023-06-14T05:43:38;14.80;99.90
59311;DHT22;45078;51.654;21.250;2023-06-14T05:46:04;15.10;99.90
59311;DHT22;45078;51.654;21.250;2023-06-14T05:48:30;15.20;99.90
59311;DHT22;45078;51.654;21.250;2023-06-14T05:50:56;15.50;99.90
59311;DHT22;45078;51.654;21.250;2023-06-14T05:53:22;15.50;99.90
59311;DHT22;45078;51.654;21.250;2023-06-14T05:55:49;15.50;99.90
59311;DHT22;45078;51.654;21.250;2023-06-14T05:58:17;15.50;99.90
59311;DHT22;45078;51.654;21.250;2023-06-14T06:00:42;15.50;99.90
59311;DHT22;45078;51.654;21.250;2023-06-14T06:03:08;15.60;99.90
59311;DHT22;45078;51.654;21.250;2023-06-14T06:05:36;15.50;99.90
59311;DHT22;45078;51.654;21.250;2023-06-14T06:08:02;15.70;99.90
59311;DHT22;45078;51.654;21.250;2023-06-14T06:10:29;15.70;99.90
59311;DHT22;45078;51.654;21.250;2023-06-14T06:12:55;15.80;99.90
59311;DHT22;45078;51.654;21.250;2023-06-14T06:15:20;15.40;99.90
59311;DHT22;45078;51.654;21.250;2023-06-14T06:17:46;15.30;99.90
59311;DHT22;45078;51.654;21.250;2023-06-14T06:20:12;15.30;99.90
59311;DHT22;45078;51.654;21.250;2023-06-14T06:22:38;15.40;99.90
59311;DHT22;45078;51.654;21.250;2023-06-14T06:25:05;15.50;99.90
59311;DHT22;45078;51.654;21.250;2023-06-14T06:27:32;15.40;99.90
59311;DHT22;45078;51.654;21.250;2023-06-14T06:29:58;15.60;99.90
59311;DHT22;45078;51.654;21.250;2023-06-14T06:32:24;15.50;99.90
59311;DHT22;45078;51.654;21.250;2023-06-14T06:34:50;15.70;99.90
59311;DHT22;45078;51.654;21.250;2023-06-14T06:37:16;15.80;99.90
59311;DHT22;45078;51.654;21.250;2023-06-14T06:39:41;16.00;99.90
59311;DHT22;45078;51.654;21.250;2023-06-14T06:42:07;16.00;99.90
59311;DHT22;45078;51.654;21.250;2023-06-14T06:44:33;16.10;99.90
59311;DHT22;45078;51.654;21.250;2023-06-14T06:46:59;16.10;99.90
59311;DHT22;45078;51.654;21.250;2023-06-14T06:49:25;16.20;99.90
59311;DHT22;45078;51.654;21.250;2023-06-14T06:52:06;16.20;99.90
59311;DHT22;45078;51.654;21.250;2023-06-14T06:54:33;16.30;99.90
59311;DHT22;45078;51.654;21.250;2023-06-14T06:56:59;16.20;99.90
59311;DHT22;45078;51.654;21.250;2023-06-14T06:59:26;16.30;99.90
59311;DHT22;45078;51.654;21.250;2023-06-14T07:01:52;16.30;99.90
59311;DHT22;45078;51.654;21.250;2023-06-14T07:04:18;16.40;99.90
59311;DHT22;45078;51.654;21.250;2023-06-14T07:06:45;16.50;99.90
59311;DHT22;45078;51.654;21.250;2023-06-14T07:09:12;16.60;99.90
59311;DHT22;45078;51.654;21.250;2023-06-14T07:11:40;16.70;99.90
59311;DHT22;45078;51.654;21.250;2023-06-14T07:14:05;16.70;99.90
59311;DHT22;45078;51.654;21.250;2023-06-14T07:16:32;16.70;99.90
59311;DHT22;45078;51.654;21.250;2023-06-14T07:18:57;16.80;99.90
59311;DHT22;45078;51.654;21.250;2023-06-14T07:21:23;17.00;99.90
59311;DHT22;45078;51.654;21.250;2023-06-14T07:23:52;17.00;99.90
59311;DHT22;45078;51.654;21.250;2023-06-14T07:26:18;17.20;99.90
59311;DHT22;45078;51.654;21.250;2023-06-14T07:28:44;17.40;99.90
59311;DHT22;45078;51.654;21.250;2023-06-14T07:31:16;17.60;99.90
59311;DHT22;45078;51.654;21.250;2023-06-14T07:33:42;17.70;99.90
59311;DHT22;45078;51.654;21.250;2023-06-14T07:36:08;17.80;99.90
59311;DHT22;45078;51.654;21.250;2023-06-14T07:38:34;17.70;99.90
59311;DHT22;45078;51.654;21.250;2023-06-14T07:41:00;17.90;99.90
59311;DHT22;45078;51.654;21.250;2023-06-14T07:43:27;18.10;99.90
59311;DHT22;45078;51.654;21.250;2023-06-14T07:45:52;18.20;99.90
59311;DHT22;45078;51.654;21.250;2023-06-14T07:48:18;18.40;99.90
59311;DHT22;45078;51.654;21.250;2023-06-14T07:50:44;18.50;99.90
59311;DHT22;45078;51.654;21.250;2023-06-14T07:53:10;18.30;99.90
59311;DHT22;45078;51.654;21.250;2023-06-14T07:55:36;18.30;99.90
59311;DHT22;45078;51.654;21.250;2023-06-14T07:58:06;18.50;99.90
59311;DHT22;45078;51.654;21.250;2023-06-14T08:00:32;18.60;99.90
59311;DHT22;45078;51.654;21.250;2023-06-14T08:02:58;18.50;99.90
59311;DHT22;45078;51.654;21.250;2023-06-14T08:05:27;18.50;99.90
59311;DHT22;45078;51.654;21.250;2023-06-14T08:07:53;18.40;99.90
59311;DHT22;45078;51.654;21.250;2023-06-14T08:10:19;18.50;99.90
59311;DHT22;45078;51.654;21.250;2023-06-14T08:12:45;18.50;99.90
59311;DHT22;45078;51.654;21.250;2023-06-14T08:15:11;18.60;99.90
59311;DHT22;45078;51.654;21.250;2023-06-14T08:17:37;18.50;99.90
59311;DHT22;45078;51.654;21.250;2023-06-14T08:20:03;18.70;99.90
59311;DHT22;45078;51.654;21.250;2023-06-14T08:22:31;18.60;99.90
59311;DHT22;45078;51.654;21.250;2023-06-14T08:25:02;18.60;99.90
59311;DHT22;45078;51.654;21.250;2023-06-14T08:27:30;18.70;99.90
59311;DHT22;45078;51.654;21.250;2023-06-14T08:29:56;18.70;99.90
59311;DHT22;45078;51.654;21.250;2023-06-14T08:32:22;18.60;99.90
59311;DHT22;45078;51.654;21.250;2023-06-14T08:34:48;18.60;99.90
59311;DHT22;45078;51.654;21.250;2023-06-14T08:37:14;18.50;99.90
59311;DHT22;45078;51.654;21.250;2023-06-14T08:39:40;18.60;99.90
59311;DHT22;45078;51.654;21.250;2023-06-14T08:42:07;18.60;99.90
59311;DHT22;45078;51.654;21.250;2023-06-14T08:44:34;18.50;99.90
59311;DHT22;45078;51.654;21.250;2023-06-14T08:47:00;18.60;99.90
59311;DHT22;45078;51.654;21.250;2023-06-14T08:49:29;18.60;99.90
59311;DHT22;45078;51.654;21.250;2023-06-14T08:52:00;18.60;99.90
59311;DHT22;45078;51.654;21.250;2023-06-14T08:54:29;18.50;99.90
59311;DHT22;45078;51.654;21.250;2023-06-14T08:56:59;18.60;99.90
59311;DHT22;45078;51.654;21.250;2023-06-14T08:59:28;18.70;99.90
59311;DHT22;45078;51.654;21.250;2023-06-14T09:01:54;18.80;99.90
59311;DHT22;45078;51.654;21.250;2023-06-14T09:04:23;19.00;99.90
59311;DHT22;45078;51.654;21.250;2023-06-14T09:06:55;19.20;99.90
59311;DHT22;45078;51.654;21.250;2023-06-14T09:09:21;19.40;99.90
59311;DHT22;45078;51.654;21.250;2023-06-14T09:11:51;19.70;99.90
59311;DHT22;45078;51.654;21.250;2023-06-14T09:14:21;19.60;99.90
59311;DHT22;45078;51.654;21.250;2023-06-14T09:16:46;19.80;99.90
59311;DHT22;45078;51.654;21.250;2023-06-14T09:19:25;19.70;99.90
59311;DHT22;45078;51.654;21.250;2023-06-14T09:21:52;19.90;99.90
59311;DHT22;45078;51.654;21.250;2023-06-14T09:24:19;19.80;99.90
59311;DHT22;45078;51.654;21.250;2023-06-14T09:26:48;19.80;99.90
59311;DHT22;45078;51.654;21.250;2023-06-14T09:29:16;19.80;99.90
59311;DHT22;45078;51.654;21.250;2023-06-14T09:31:43;19.60;99.90
59311;DHT22;45078;51.654;21.250;2023-06-14T09:34:09;19.50;99.90
59311;DHT22;45078;51.654;21.250;2023-06-14T09:36:35;19.40;99.90
59311;DHT22;45078;51.654;21.250;2023-06-14T09:39:02;19.20;99.90
59311;DHT22;45078;51.654;21.250;2023-06-14T09:41:40;19.10;99.90
59311;DHT22;45078;51.654;21.250;2023-06-14T09:44:07;19.00;99.90
59311;DHT22;45078;51.654;21.250;2023-06-14T09:46:34;18.90;99.90
59311;DHT22;45078;51.654;21.250;2023-06-14T09:49:01;18.80;99.90
59311;DHT22;45078;51.654;21.250;2023-06-14T09:51:28;18.70;99.90
59311;DHT22;45078;51.654;21.250;2023-06-14T09:54:00;18.60;99.90
59311;DHT22;45078;51.654;21.250;2023-06-14T09:56:31;18.50;99.90
59311;DHT22;45078;51.654;21.250;2023-06-14T09:58:59;18.50;99.90
59311;DHT22;45078;51.654;21.250;2023-06-14T10:01:26;18.40;99.90
59311;DHT22;45078;51.654;21.250;2023-06-14T10:03:59;18.40;99.90
59311;DHT22;45078;51.654;21.250;2023-06-14T10:06:27;18.50;99.90
59311;DHT22;45078;51.654;21.250;2023-06-14T10:08:57;18.50;99.90
59311;DHT22;45078;51.654;21.250;2023-06-14T10:11:25;18.40;99.90
59311;DHT22;45078;51.654;21.250;2023-06-14T10:13:52;18.40;99.90
59311;DHT22;45078;51.654;21.250;2023-06-14T10:16:37;18.50;99.90
59311;DHT22;45078;51.654;21.250;2023-06-14T10:19:21;18.50;99.90
59311;DHT22;45078;51.654;21.250;2023-06-14T10:22:11;18.60;99.90
59311;DHT22;45078;51.654;21.250;2023-06-14T10:24:43;18.70;99.90
59311;DHT22;45078;51.654;21.250;2023-06-14T10:27:09;18.80;99.90
59311;DHT22;45078;51.654;21.250;2023-06-14T10:32:23;18.90;99.90
59311;DHT22;45078;51.654;21.250;2023-06-14T10:35:11;19.00;99.90
59311;DHT22;45078;51.654;21.250;2023-06-14T10:37:41;19.10;99.90
59311;DHT22;45078;51.654;21.250;2023-06-14T10:40:07;19.20;99.90
59311;DHT22;45078;51.654;21.250;2023-06-14T10:42:34;19.20;99.90
59311;DHT22;45078;51.654;21.250;2023-06-14T10:45:00;19.30;99.90
59311;DHT22;45078;51.654;21.250;2023-06-14T10:47:33;19.40;99.90
59311;DHT22;45078;51.654;21.250;2023-06-14T10:50:08;19.30;99.90
59311;DHT22;45078;51.654;21.250;2023-06-14T10:52:39;19.40;99.90
59311;DHT22;45078;51.654;21.250;2023-06-14T10:55:18;19.40;99.90
59311;DHT22;45078;51.654;21.250;2023-06-14T11:00:25;19.40;99.90
59311;DHT22;45078;51.654;21.250;2023-06-14T11:05:48;19.30;99.90
59311;DHT22;45078;51.654;21.250;2023-06-14T11:11:08;19.40;99.90
59311;DHT22;45078;51.654;21.250;2023-06-14T11:13:38;19.40;99.90
59311;DHT22;45078;51.654;21.250;2023-06-14T11:16:16;19.40;99.90
59311;DHT22;45078;51.654;21.250;2023-06-14T11:18:42;19.50;99.90
59311;DHT22;45078;51.654;21.250;2023-06-14T11:21:09;19.60;99.90
59311;DHT22;45078;51.654;21.250;2023-06-14T11:23:35;19.60;99.90
59311;DHT22;45078;51.654;21.250;2023-06-14T11:26:01;19.70;99.90
59311;DHT22;45078;51.654;21.250;2023-06-14T11:28:46;19.90;99.90
59311;DHT22;45078;51.654;21.250;2023-06-14T11:31:12;20.10;99.90
59311;DHT22;45078;51.654;21.250;2023-06-14T11:33:38;20.30;99.90
59311;DHT22;45078;51.654;21.250;2023-06-14T11:36:06;20.40;99.90
59311;DHT22;45078;51.654;21.250;2023-06-14T11:38:36;20.60;99.90
59311;DHT22;45078;51.654;21.250;2023-06-14T11:41:05;20.60;99.90
59311;DHT22;45078;51.654;21.250;2023-06-14T11:43:31;20.70;99.90
59311;DHT22;45078;51.654;21.250;2023-06-14T11:45:59;20.80;99.90
59311;DHT22;45078;51.654;21.250;2023-06-14T11:48:40;20.80;99.90
59311;DHT22;45078;51.654;21.250;2023-06-14T11:51:07;20.90;99.90
59311;DHT22;45078;51.654;21.250;2023-06-14T11:53:33;20.80;99.90
59311;DHT22;45078;51.654;21.250;2023-06-14T11:55:59;21.20;99.90
59311;DHT22;45078;51.654;21.250;2023-06-14T11:58:26;21.40;99.90
59311;DHT22;45078;51.654;21.250;2023-06-14T12:00:53;21.60;98.90
59311;DHT22;45078;51.654;21.250;2023-06-14T12:03:23;22.00;97.80
59311;DHT22;45078;51.654;21.250;2023-06-14T12:06:01;22.20;95.70
59311;DHT22;45078;51.654;21.250;2023-06-14T12:08:32;22.30;94.30
59311;DHT22;45078;51.654;21.250;2023-06-14T12:11:04;22.30;95.80
59311;DHT22;45078;51.654;21.250;2023-06-14T12:13:31;22.20;95.90
59311;DHT22;45078;51.654;21.250;2023-06-14T12:15:57;22.00;95.70
59311;DHT22;45078;51.654;21.250;2023-06-14T12:18:32;22.00;94.50
59311;DHT22;45078;51.654;21.250;2023-06-14T12:21:00;21.80;94.60
59311;DHT22;45078;51.654;21.250;2023-06-14T12:23:47;21.80;93.40
59311;DHT22;45078;51.654;21.250;2023-06-14T12:28:42;21.40;94.30
59311;DHT22;45078;51.654;21.250;2023-06-14T12:31:08;21.30;93.50
59311;DHT22;45078;51.654;21.250;2023-06-14T12:33:34;21.20;93.50
59311;DHT22;45078;51.654;21.250;2023-06-14T12:36:04;21.00;92.00
59311;DHT22;45078;51.654;21.250;2023-06-14T12:38:32;21.00;93.80
59311;DHT22;45078;51.654;21.250;2023-06-14T12:40:58;21.10;93.00
59311;DHT22;45078;51.654;21.250;2023-06-14T12:43:24;21.00;91.80
59311;DHT22;45078;51.654;21.250;2023-06-14T12:45:50;21.00;91.90
59311;DHT22;45078;51.654;21.250;2023-06-14T12:48:15;21.00;90.60
59311;DHT22;45078;51.654;21.250;2023-06-14T12:50:41;21.10;91.20
59311;DHT22;45078;51.654;21.250;2023-06-14T12:53:08;21.10;89.80
59311;DHT22;45078;51.654;21.250;2023-06-14T12:55:33;21.00;91.30
59311;DHT22;45078;51.654;21.250;2023-06-14T12:57:59;20.90;91.20
59311;DHT22;45078;51.654;21.250;2023-06-14T13:00:25;20.90;91.00
59311;DHT22;45078;51.654;21.250;2023-06-14T13:02:56;20.80;90.20
59311;DHT22;45078;51.654;21.250;2023-06-14T13:05:22;20.90;90.30
59311;DHT22;45078;51.654;21.250;2023-06-14T13:07:48;20.80;89.90
59311;DHT22;45078;51.654;21.250;2023-06-14T13:10:14;20.90;90.40
59311;DHT22;45078;51.654;21.250;2023-06-14T13:12:40;20.90;91.10
59311;DHT22;45078;51.654;21.250;2023-06-14T13:15:06;21.00;91.30
59311;DHT22;45078;51.654;21.250;2023-06-14T13:17:33;20.90;91.70
59311;DHT22;45078;51.654;21.250;2023-06-14T13:20:05;20.90;92.70
59311;DHT22;45078;51.654;21.250;2023-06-14T13:22:31;20.90;92.00
59311;DHT22;45078;51.654;21.250;2023-06-14T13:24:56;21.00;91.60
59311;DHT22;45078;51.654;21.250;2023-06-14T13:27:22;20.90;92.30
59311;DHT22;45078;51.654;21.250;2023-06-14T13:29:50;20.90;92.40
59311;DHT22;45078;51.654;21.250;2023-06-14T13:32:15;20.80;93.90
59311;DHT22;45078;51.654;21.250;2023-06-14T13:34:41;21.00;95.20
59311;DHT22;45078;51.654;21.250;2023-06-14T13:37:07;21.00;95.40
59311;DHT22;45078;51.654;21.250;2023-06-14T13:39:33;21.00;94.20
59311;DHT22;45078;51.654;21.250;2023-06-14T13:41:58;21.00;94.80
59311;DHT22;45078;51.654;21.250;2023-06-14T13:44:24;21.20;94.10
59311;DHT22;45078;51.654;21.250;2023-06-14T13:46:50;21.10;93.60
59311;DHT22;45078;51.654;21.250;2023-06-14T13:49:16;21.00;94.40
59311;DHT22;45078;51.654;21.250;2023-06-14T13:51:42;21.10;95.40
59311;DHT22;45078;51.654;21.250;2023-06-14T13:54:08;21.00;94.40
59311;DHT22;45078;51.654;21.250;2023-06-14T13:56:34;21.00;94.50
59311;DHT22;45078;51.654;21.250;2023-06-14T13:59:00;20.80;95.10
59311;DHT22;45078;51.654;21.250;2023-06-14T14:01:26;20.50;96.60
59311;DHT22;45078;51.654;21.250;2023-06-14T14:03:54;20.60;96.00
59311;DHT22;45078;51.654;21.250;2023-06-14T14:06:19;20.50;96.60
59311;DHT22;45078;51.654;21.250;2023-06-14T14:08:46;20.50;97.10
59311;DHT22;45078;51.654;21.250;2023-06-14T14:11:12;20.50;98.10
59311;DHT22;45078;51.654;21.250;2023-06-14T14:13:38;20.50;97.70
59311;DHT22;45078;51.654;21.250;2023-06-14T14:16:05;20.50;97.10
59311;DHT22;45078;51.654;21.250;2023-06-14T14:18:31;20.50;97.40
59311;DHT22;45078;51.654;21.250;2023-06-14T14:20:58;20.50;97.90
59311;DHT22;45078;51.654;21.250;2023-06-14T14:23:24;20.40;97.90
59311;DHT22;45078;51.654;21.250;2023-06-14T14:25:50;20.40;97.70
59311;DHT22;45078;51.654;21.250;2023-06-14T14:28:15;20.40;97.70
59311;DHT22;45078;51.654;21.250;2023-06-14T14:30:44;20.30;97.90
59311;DHT22;45078;51.654;21.250;2023-06-14T14:33:09;20.50;98.50
59311;DHT22;45078;51.654;21.250;2023-06-14T14:35:41;20.70;99.40
59311;DHT22;45078;51.654;21.250;2023-06-14T14:38:07;20.60;98.60
59311;DHT22;45078;51.654;21.250;2023-06-14T14:40:33;20.50;99.40
59311;DHT22;45078;51.654;21.250;2023-06-14T14:42:59;20.50;98.50
59311;DHT22;45078;51.654;21.250;2023-06-14T14:45:24;20.50;99.20
59311;DHT22;45078;51.654;21.250;2023-06-14T14:47:50;20.40;99.00
59311;DHT22;45078;51.654;21.250;2023-06-14T14:50:16;20.40;99.90
59311;DHT22;45078;51.654;21.250;2023-06-14T14:52:42;20.40;99.90
59311;DHT22;45078;51.654;21.250;2023-06-14T14:55:08;20.50;99.90
59311;DHT22;45078;51.654;21.250;2023-06-14T14:57:34;20.50;99.30
59311;DHT22;45078;51.654;21.250;2023-06-14T15:00:03;20.30;99.40
59311;DHT22;45078;51.654;21.250;2023-06-14T15:02:29;20.20;99.50
59311;DHT22;45078;51.654;21.250;2023-06-14T15:04:54;20.20;99.90
59311;DHT22;45078;51.654;21.250;2023-06-14T15:07:23;19.80;99.90
59311;DHT22;45078;51.654;21.250;2023-06-14T15:09:48;19.50;99.90
59311;DHT22;45078;51.654;21.250;2023-06-14T15:12:16;19.20;99.90
59311;DHT22;45078;51.654;21.250;2023-06-14T15:14:42;19.20;99.90
59311;DHT22;45078;51.654;21.250;2023-06-14T15:17:08;19.30;99.90
59311;DHT22;45078;51.654;21.250;2023-06-14T15:19:33;19.10;99.90
59311;DHT22;45078;51.654;21.250;2023-06-14T15:22:01;19.00;99.90
59311;DHT22;45078;51.654;21.250;2023-06-14T15:24:27;19.00;99.90
59311;DHT22;45078;51.654;21.250;2023-06-14T15:26:52;18.70;99.90
59311;DHT22;45078;51.654;21.250;2023-06-14T15:29:18;18.60;99.90
59311;DHT22;45078;51.654;21.250;2023-06-14T15:31:44;18.20;99.90
59311;DHT22;45078;51.654;21.250;2023-06-14T15:34:09;18.00;99.90
59311;DHT22;45078;51.654;21.250;2023-06-14T15:36:35;17.70;99.90